sensor_id;sensor_type;location;lat;lon;timestamp;pressure;altitude;pressure_sealevel;temperature;humidity
33697;BME280;20031;43.416;23.232;2023-02-12T00:00:32;101167.91;;;-1.13;73.32
33697;BME280;20031;43.416;23.232;2023-02-12T00:02:58;101166.97;;;-1.10;73.31
33697;BME280;20031;43.416;23.232;2023-02-12T00:05:23;101162.66;;;-1.10;72.81
33697;BME280;20031;43.416;23.232;2023-02-12T00:07:49;101172.88;;;-1.10;72.87
33697;BME280;20031;43.416;23.232;2023-02-12T00:10:14;101169.44;;;-1.09;72.54
33697;BME280;20031;43.416;23.232;2023-02-12T00:12:40;101165.97;;;-1.08;71.54
33697;BME280;20031;43.416;23.232;2023-02-12T00:15:06;101173.47;;;-1.03;70.84
33697;BME280;20031;43.416;23.232;2023-02-12T00:17:31;101175.06;;;-1.01;71.07
33697;BME280;20031;43.416;23.232;2023-02-12T00:19:57;101161.34;;;-0.99;71.47
33697;BME280;20031;43.416;23.232;2023-02-12T00:22:22;101182.50;;;-0.95;71.83
33697;BME280;20031;43.416;23.232;2023-02-12T00:24:48;101180.69;;;-0.92;71.93
33697;BME280;20031;43.416;23.232;2023-02-12T00:27:13;101166.84;;;-0.86;72.75
33697;BME280;20031;43.416;23.232;2023-02-12T00:29:39;101167.47;;;-0.81;73.21
33697;BME280;20031;43.416;23.232;2023-02-12T00:32:04;101164.66;;;-0.75;73.15
33697;BME280;20031;43.416;23.232;2023-02-12T00:34:30;101166.13;;;-0.70;72.98
33697;BME280;20031;43.416;23.232;2023-02-12T00:36:55;101151.53;;;-0.66;73.03
33697;BME280;20031;43.416;23.232;2023-02-12T00:39:21;101165.19;;;-0.67;73.28
33697;BME280;20031;43.416;23.232;2023-02-12T00:41:46;101160.09;;;-0.67;73.29
33697;BME280;20031;43.416;23.232;2023-02-12T00:44:12;101164.44;;;-0.69;73.31
33697;BME280;20031;43.416;23.232;2023-02-12T00:46:37;101168.00;;;-0.73;73.47
33697;BME280;20031;43.416;23.232;2023-02-12T00:49:03;101163.13;;;-0.79;73.03
33697;BME280;20031;43.416;23.232;2023-02-12T00:51:28;101152.25;;;-0.84;73.78
33697;BME280;20031;43.416;23.232;2023-02-12T00:53:53;101150.69;;;-0.88;73.74
33697;BME280;20031;43.416;23.232;2023-02-12T00:56:19;101144.84;;;-0.90;73.93
33697;BME280;20031;43.416;23.232;2023-02-12T00:58:44;101154.25;;;-0.92;74.17
33697;BME280;20031;43.416;23.232;2023-02-12T01:01:10;101152.63;;;-0.93;74.03
33697;BME280;20031;43.416;23.232;2023-02-12T01:03:36;101154.31;;;-0.94;73.28
33697;BME280;20031;43.416;23.232;2023-02-12T01:06:02;101151.84;;;-0.95;73.10
33697;BME280;20031;43.416;23.232;2023-02-12T01:08:28;101145.09;;;-0.96;73.09
33697;BME280;20031;43.416;23.232;2023-02-12T01:11:02;101140.84;;;-0.97;73.54
33697;BME280;20031;43.416;23.232;2023-02-12T01:13:30;101132.44;;;-0.99;73.07
33697;BME280;20031;43.416;23.232;2023-02-12T01:16:13;101132.44;;;-0.99;73.54
33697;BME280;20031;43.416;23.232;2023-02-12T01:18:39;101118.72;;;-0.98;73.13
33697;BME280;20031;43.416;23.232;2023-02-12T01:21:10;101126.41;;;-0.98;73.36
33697;BME280;20031;43.416;23.232;2023-02-12T01:23:35;101116.97;;;-0.96;73.64
33697;BME280;20031;43.416;23.232;2023-02-12T01:26:01;101116.00;;;-0.94;73.74
33697;BME280;20031;43.416;23.232;2023-02-12T01:28:26;101122.59;;;-0.88;73.93
33697;BME280;20031;43.416;23.232;2023-02-12T01:30:52;101119.91;;;-0.85;73.59
33697;BME280;20031;43.416;23.232;2023-02-12T01:33:18;101120.63;;;-0.82;74.06
33697;BME280;20031;43.416;23.232;2023-02-12T01:35:45;101119.63;;;-0.78;73.98
33697;BME280;20031;43.416;23.232;2023-02-12T01:38:10;101114.38;;;-0.75;73.55
33697;BME280;20031;43.416;23.232;2023-02-12T01:40:36;101112.56;;;-0.73;72.53
33697;BME280;20031;43.416;23.232;2023-02-12T01:43:01;101114.13;;;-0.69;72.26
33697;BME280;20031;43.416;23.232;2023-02-12T01:47:52;101101.81;;;-0.59;72.49
33697;BME280;20031;43.416;23.232;2023-02-12T01:50:19;101106.72;;;-0.55;72.09
33697;BME280;20031;43.416;23.232;2023-02-12T01:52:47;101103.97;;;-0.51;72.42
33697;BME280;20031;43.416;23.232;2023-02-12T01:55:15;101105.38;;;-0.44;72.50
33697;BME280;20031;43.416;23.232;2023-02-12T01:57:42;101118.78;;;-0.39;73.00
33697;BME280;20031;43.416;23.232;2023-02-12T02:00:12;101104.16;;;-0.35;72.38
33697;BME280;20031;43.416;23.232;2023-02-12T02:02:38;101111.63;;;-0.31;72.53
33697;BME280;20031;43.416;23.232;2023-02-12T02:05:05;101106.38;;;-0.28;72.69
33697;BME280;20031;43.416;23.232;2023-02-12T02:07:31;101108.06;;;-0.27;71.88
33697;BME280;20031;43.416;23.232;2023-02-12T02:09:58;101105.50;;;-0.27;71.59
33697;BME280;20031;43.416;23.232;2023-02-12T02:12:24;101103.69;;;-0.25;71.14
33697;BME280;20031;43.416;23.232;2023-02-12T02:15:10;101090.91;;;-0.25;70.95
33697;BME280;20031;43.416;23.232;2023-02-12T02:18:09;101093.31;;;-0.22;70.65
33697;BME280;20031;43.416;23.232;2023-02-12T02:26:32;101090.41;;;-0.14;70.61
33697;BME280;20031;43.416;23.232;2023-02-12T02:32:22;101092.03;;;-0.12;70.85
33697;BME280;20031;43.416;23.232;2023-02-12T02:35:05;101101.38;;;-0.11;70.40
33697;BME280;20031;43.416;23.232;2023-02-12T02:37:55;101096.13;;;-0.08;71.08
33697;BME280;20031;43.416;23.232;2023-02-12T02:40:23;101086.50;;;-0.03;70.77
33697;BME280;20031;43.416;23.232;2023-02-12T02:42:57;101098.19;;;0.02;71.06
33697;BME280;20031;43.416;23.232;2023-02-12T02:47:56;101095.78;;;0.18;71.21
33697;BME280;20031;43.416;23.232;2023-02-12T02:50:25;101098.91;;;0.24;71.32
33697;BME280;20031;43.416;23.232;2023-02-12T02:53:00;101085.13;;;0.27;71.47
33697;BME280;20031;43.416;23.232;2023-02-12T02:55:50;101080.72;;;0.30;71.72
33697;BME280;20031;43.416;23.232;2023-02-12T02:58:49;101086.50;;;0.34;71.42
33697;BME280;20031;43.416;23.232;2023-02-12T03:01:37;101088.94;;;0.37;71.82
33697;BME280;20031;43.416;23.232;2023-02-12T03:04:18;101089.72;;;0.39;71.17
33697;BME280;20031;43.416;23.232;2023-02-12T03:06:51;101086.13;;;0.43;71.75
33697;BME280;20031;43.416;23.232;2023-02-12T03:09:22;101089.97;;;0.51;71.36
33697;BME280;20031;43.416;23.232;2023-02-12T03:11:54;101083.13;;;0.51;71.17
33697;BME280;20031;43.416;23.232;2023-02-12T03:14:27;101081.31;;;0.53;71.56
33697;BME280;20031;43.416;23.232;2023-02-12T03:16:57;101084.56;;;0.57;70.74
33697;BME280;20031;43.416;23.232;2023-02-12T03:19:28;101090.50;;;0.57;70.77
33697;BME280;20031;43.416;23.232;2023-02-12T03:21:59;101093.81;;;0.59;70.85
33697;BME280;20031;43.416;23.232;2023-02-12T03:24:45;101091.88;;;0.64;70.86
33697;BME280;20031;43.416;23.232;2023-02-12T03:27:20;101101.19;;;0.67;71.14
33697;BME280;20031;43.416;23.232;2023-02-12T03:29:46;101101.09;;;0.68;71.50
33697;BME280;20031;43.416;23.232;2023-02-12T03:32:35;101101.84;;;0.70;70.99
33697;BME280;20031;43.416;23.232;2023-02-12T03:37:40;101099.13;;;0.73;71.21
33697;BME280;20031;43.416;23.232;2023-02-12T03:40:16;101102.47;;;0.75;71.58
33697;BME280;20031;43.416;23.232;2023-02-12T03:50:49;101113.41;;;1.31;71.23
33697;BME280;20031;43.416;23.232;2023-02-12T03:53:17;101118.50;;;1.81;69.67
33697;BME280;20031;43.416;23.232;2023-02-12T03:55:46;101116.19;;;2.09;67.12
33697;BME280;20031;43.416;23.232;2023-02-12T03:58:17;101111.47;;;2.32;65.30
33697;BME280;20031;43.416;23.232;2023-02-12T04:00:43;101118.47;;;2.61;64.15
33697;BME280;20031;43.416;23.232;2023-02-12T04:03:09;101120.09;;;2.93;62.17
33697;BME280;20031;43.416;23.232;2023-02-12T04:05:35;101125.75;;;3.14;60.38
33697;BME280;20031;43.416;23.232;2023-02-12T04:08:01;101137.19;;;3.38;59.04
33697;BME280;20031;43.416;23.232;2023-02-12T04:10:36;101130.25;;;3.54;57.73
33697;BME280;20031;43.416;23.232;2023-02-12T04:16:16;101132.63;;;3.86;56.31
33697;BME280;20031;43.416;23.232;2023-02-12T04:18:45;101136.31;;;3.96;56.31
33697;BME280;20031;43.416;23.232;2023-02-12T04:27:06;101130.78;;;4.16;57.52
33697;BME280;20031;43.416;23.232;2023-02-12T04:32:06;101122.16;;;4.17;57.60
33697;BME280;20031;43.416;23.232;2023-02-12T04:37:51;101121.22;;;4.04;58.08
33697;BME280;20031;43.416;23.232;2023-02-12T04:40:20;101124.00;;;4.01;58.18
33697;BME280;20031;43.416;23.232;2023-02-12T04:42:48;101124.63;;;3.91;58.58
33697;BME280;20031;43.416;23.232;2023-02-12T04:45:25;101126.81;;;3.83;58.27
33697;BME280;20031;43.416;23.232;2023-02-12T04:47:50;101133.34;;;3.74;58.71
33697;BME280;20031;43.416;23.232;2023-02-12T04:50:17;101134.03;;;3.62;59.12
33697;BME280;20031;43.416;23.232;2023-02-12T04:52:43;101134.56;;;3.53;59.13
33697;BME280;20031;43.416;23.232;2023-02-12T04:55:08;101129.97;;;3.45;59.71
33697;BME280;20031;43.416;23.232;2023-02-12T04:57:34;101131.28;;;3.52;60.15
33697;BME280;20031;43.416;23.232;2023-02-12T04:59:59;101142.94;;;3.43;59.73
33697;BME280;20031;43.416;23.232;2023-02-12T05:02:25;101143.44;;;3.34;59.94
33697;BME280;20031;43.416;23.232;2023-02-12T05:04:50;101140.38;;;3.28;59.95
33697;BME280;20031;43.416;23.232;2023-02-12T05:07:16;101143.50;;;3.19;60.37
33697;BME280;20031;43.416;23.232;2023-02-12T05:09:41;101149.22;;;3.08;60.49
33697;BME280;20031;43.416;23.232;2023-02-12T05:12:07;101158.25;;;3.00;61.18
33697;BME280;20031;43.416;23.232;2023-02-12T05:14:32;101149.31;;;2.92;61.76
33697;BME280;20031;43.416;23.232;2023-02-12T05:16:58;101158.34;;;2.83;61.94
33697;BME280;20031;43.416;23.232;2023-02-12T05:19:23;101155.31;;;2.77;62.26
33697;BME280;20031;43.416;23.232;2023-02-12T05:21:50;101154.94;;;2.67;62.68
33697;BME280;20031;43.416;23.232;2023-02-12T05:24:16;101167.34;;;2.76;63.40
33697;BME280;20031;43.416;23.232;2023-02-12T05:26:41;101161.09;;;2.80;62.92
33697;BME280;20031;43.416;23.232;2023-02-12T05:29:07;101166.50;;;2.76;62.51
33697;BME280;20031;43.416;23.232;2023-02-12T05:31:32;101165.91;;;2.71;62.91
33697;BME280;20031;43.416;23.232;2023-02-12T05:33:58;101163.69;;;2.65;62.85
33697;BME280;20031;43.416;23.232;2023-02-12T05:36:24;101171.63;;;2.60;63.61
33697;BME280;20031;43.416;23.232;2023-02-12T05:38:50;101170.06;;;2.58;63.79
33697;BME280;20031;43.416;23.232;2023-02-12T05:41:19;101162.59;;;2.53;64.01
33697;BME280;20031;43.416;23.232;2023-02-12T05:43:44;101169.53;;;2.52;64.03
33697;BME280;20031;43.416;23.232;2023-02-12T05:46:10;101174.84;;;2.49;64.22
33697;BME280;20031;43.416;23.232;2023-02-12T05:48:36;101171.63;;;2.45;64.45
33697;BME280;20031;43.416;23.232;2023-02-12T05:51:07;101176.84;;;2.44;64.88
33697;BME280;20031;43.416;23.232;2023-02-12T05:53:33;101179.47;;;2.42;65.23
33697;BME280;20031;43.416;23.232;2023-02-12T05:56:11;101178.72;;;2.40;65.47
33697;BME280;20031;43.416;23.232;2023-02-12T05:58:37;101183.13;;;2.38;65.05
33697;BME280;20031;43.416;23.232;2023-02-12T06:01:08;101183.22;;;2.37;65.50
33697;BME280;20031;43.416;23.232;2023-02-12T06:03:33;101193.41;;;2.38;65.59
33697;BME280;20031;43.416;23.232;2023-02-12T06:05:59;101189.91;;;2.39;65.95
33697;BME280;20031;43.416;23.232;2023-02-12T06:08:24;101189.09;;;2.39;65.98
33697;BME280;20031;43.416;23.232;2023-02-12T06:10:50;101201.78;;;2.42;66.23
33697;BME280;20031;43.416;23.232;2023-02-12T06:13:15;101192.25;;;2.44;66.20
33697;BME280;20031;43.416;23.232;2023-02-12T06:15:41;101196.41;;;2.46;66.63
33697;BME280;20031;43.416;23.232;2023-02-12T06:18:06;101200.56;;;2.49;66.64
33697;BME280;20031;43.416;23.232;2023-02-12T06:20:31;101204.72;;;2.51;66.87
33697;BME280;20031;43.416;23.232;2023-02-12T06:22:57;101191.94;;;2.50;67.13
33697;BME280;20031;43.416;23.232;2023-02-12T06:25:22;101210.59;;;2.53;66.96
33697;BME280;20031;43.416;23.232;2023-02-12T06:27:48;101214.00;;;2.53;66.62
33697;BME280;20031;43.416;23.232;2023-02-12T06:30:13;101212.34;;;2.53;66.87
33697;BME280;20031;43.416;23.232;2023-02-12T06:32:39;101218.31;;;2.53;66.95
33697;BME280;20031;43.416;23.232;2023-02-12T06:35:05;101216.50;;;2.55;67.42
33697;BME280;20031;43.416;23.232;2023-02-12T06:37:30;101223.97;;;2.59;67.13
33697;BME280;20031;43.416;23.232;2023-02-12T06:39:57;101220.97;;;2.67;67.27
33697;BME280;20031;43.416;23.232;2023-02-12T06:42:22;101218.97;;;2.72;67.04
33697;BME280;20031;43.416;23.232;2023-02-12T06:44:47;101224.47;;;2.81;67.39
33697;BME280;20031;43.416;23.232;2023-02-12T06:47:13;101220.69;;;2.88;67.21
33697;BME280;20031;43.416;23.232;2023-02-12T06:49:38;101226.97;;;2.98;67.36
33697;BME280;20031;43.416;23.232;2023-02-12T06:52:04;101234.28;;;3.05;67.75
33697;BME280;20031;43.416;23.232;2023-02-12T06:54:29;101240.75;;;3.12;67.70
33697;BME280;20031;43.416;23.232;2023-02-12T06:56:55;101242.19;;;3.18;67.39
33697;BME280;20031;43.416;23.232;2023-02-12T06:59:20;101250.31;;;3.26;67.05
33697;BME280;20031;43.416;23.232;2023-02-12T07:01:45;101258.19;;;3.38;67.20
33697;BME280;20031;43.416;23.232;2023-02-12T07:04:11;101260.00;;;3.52;67.10
33697;BME280;20031;43.416;23.232;2023-02-12T07:06:37;101269.44;;;3.66;67.25
33697;BME280;20031;43.416;23.232;2023-02-12T07:09:03;101270.41;;;3.79;66.56
33697;BME280;20031;43.416;23.232;2023-02-12T07:11:31;101276.53;;;3.92;66.01
33697;BME280;20031;43.416;23.232;2023-02-12T07:13:57;101275.84;;;4.04;66.01
33697;BME280;20031;43.416;23.232;2023-02-12T07:16:23;101285.72;;;4.11;65.26
33697;BME280;20031;43.416;23.232;2023-02-12T07:18:48;101285.25;;;4.19;64.93
33697;BME280;20031;43.416;23.232;2023-02-12T07:21:15;101284.66;;;4.29;64.84
33697;BME280;20031;43.416;23.232;2023-02-12T07:23:44;101289.00;;;4.43;64.66
33697;BME280;20031;43.416;23.232;2023-02-12T07:26:11;101290.13;;;4.53;64.49
33697;BME280;20031;43.416;23.232;2023-02-12T07:28:38;101284.59;;;4.58;64.27
33697;BME280;20031;43.416;23.232;2023-02-12T07:33:39;101284.41;;;4.89;63.32
33697;BME280;20031;43.416;23.232;2023-02-12T07:36:09;101279.97;;;5.05;63.12
33697;BME280;20031;43.416;23.232;2023-02-12T07:38:36;101280.06;;;5.17;62.38
33697;BME280;20031;43.416;23.232;2023-02-12T07:43:43;101286.38;;;5.40;59.24
33697;BME280;20031;43.416;23.232;2023-02-12T07:46:21;101278.94;;;5.61;58.28
33697;BME280;20031;43.416;23.232;2023-02-12T07:48:49;101286.78;;;5.86;57.81
33697;BME280;20031;43.416;23.232;2023-02-12T07:51:16;101288.78;;;5.95;56.37
33697;BME280;20031;43.416;23.232;2023-02-12T07:53:46;101284.59;;;6.07;55.82
33697;BME280;20031;43.416;23.232;2023-02-12T07:56:14;101295.16;;;6.28;55.72
33697;BME280;20031;43.416;23.232;2023-02-12T07:58:42;101293.31;;;6.43;55.69
33697;BME280;20031;43.416;23.232;2023-02-12T08:01:35;101298.38;;;6.44;54.43
33697;BME280;20031;43.416;23.232;2023-02-12T08:04:06;101301.19;;;6.41;54.19
33697;BME280;20031;43.416;23.232;2023-02-12T08:06:35;101304.38;;;6.32;53.72
33697;BME280;20031;43.416;23.232;2023-02-12T08:09:03;101313.16;;;6.30;53.66
33697;BME280;20031;43.416;23.232;2023-02-12T08:11:29;101311.53;;;6.29;53.78
33697;BME280;20031;43.416;23.232;2023-02-12T08:13:56;101315.34;;;6.23;53.05
33697;BME280;20031;43.416;23.232;2023-02-12T08:16:24;101318.75;;;6.24;53.49
33697;BME280;20031;43.416;23.232;2023-02-12T08:18:50;101312.03;;;6.34;53.72
33697;BME280;20031;43.416;23.232;2023-02-12T08:21:18;101312.28;;;6.43;53.65
33697;BME280;20031;43.416;23.232;2023-02-12T08:23:44;101314.84;;;6.56;53.68
33697;BME280;20031;43.416;23.232;2023-02-12T08:28:36;101307.22;;;6.79;53.86
33697;BME280;20031;43.416;23.232;2023-02-12T08:31:04;101315.91;;;6.78;54.10
33697;BME280;20031;43.416;23.232;2023-02-12T08:33:30;101327.59;;;6.83;54.50
33697;BME280;20031;43.416;23.232;2023-02-12T08:36:11;101325.63;;;6.87;53.98
33697;BME280;20031;43.416;23.232;2023-02-12T08:38:37;101324.47;;;6.78;54.71
33697;BME280;20031;43.416;23.232;2023-02-12T08:41:06;101327.91;;;6.79;54.94
33697;BME280;20031;43.416;23.232;2023-02-12T08:43:32;101336.41;;;6.81;55.07
33697;BME280;20031;43.416;23.232;2023-02-12T08:46:12;101331.53;;;6.76;54.64
33697;BME280;20031;43.416;23.232;2023-02-12T08:48:39;101334.75;;;6.67;55.05
33697;BME280;20031;43.416;23.232;2023-02-12T08:51:09;101340.84;;;6.66;55.32
33697;BME280;20031;43.416;23.232;2023-02-12T08:53:36;101339.69;;;6.58;55.17
33697;BME280;20031;43.416;23.232;2023-02-12T08:56:02;101339.28;;;6.52;55.39
33697;BME280;20031;43.416;23.232;2023-02-12T08:58:28;101349.41;;;6.42;55.57
33697;BME280;20031;43.416;23.232;2023-02-12T09:00:53;101349.19;;;6.33;56.10
33697;BME280;20031;43.416;23.232;2023-02-12T09:03:19;101356.00;;;6.34;56.18
33697;BME280;20031;43.416;23.232;2023-02-12T09:05:44;101362.66;;;6.38;56.43
33697;BME280;20031;43.416;23.232;2023-02-12T09:08:10;101370.63;;;6.47;56.46
33697;BME280;20031;43.416;23.232;2023-02-12T09:10:40;101376.34;;;6.52;56.25
33697;BME280;20031;43.416;23.232;2023-02-12T09:13:08;101363.00;;;6.58;56.04
33697;BME280;20031;43.416;23.232;2023-02-12T09:15:41;101366.94;;;6.63;56.21
33697;BME280;20031;43.416;23.232;2023-02-12T09:18:07;101369.72;;;6.60;55.52
33697;BME280;20031;43.416;23.232;2023-02-12T09:20:33;101375.41;;;6.65;55.87
33697;BME280;20031;43.416;23.232;2023-02-12T09:23:01;101384.13;;;6.77;55.51
33697;BME280;20031;43.416;23.232;2023-02-12T09:25:26;101387.16;;;6.83;56.08
33697;BME280;20031;43.416;23.232;2023-02-12T09:27:51;101393.25;;;6.82;56.05
33697;BME280;20031;43.416;23.232;2023-02-12T09:30:17;101393.44;;;6.79;55.76
33697;BME280;20031;43.416;23.232;2023-02-12T09:32:43;101396.03;;;6.79;55.83
33697;BME280;20031;43.416;23.232;2023-02-12T09:35:08;101404.97;;;6.88;55.82
33697;BME280;20031;43.416;23.232;2023-02-12T09:37:37;101402.25;;;6.89;55.52
33697;BME280;20031;43.416;23.232;2023-02-12T09:40:04;101405.19;;;6.97;55.93
33697;BME280;20031;43.416;23.232;2023-02-12T09:45:14;101402.47;;;6.86;55.94
33697;BME280;20031;43.416;23.232;2023-02-12T09:50:42;101412.41;;;6.92;55.58
33697;BME280;20031;43.416;23.232;2023-02-12T09:53:18;101413.97;;;6.95;55.67
33697;BME280;20031;43.416;23.232;2023-02-12T09:55:45;101405.59;;;7.04;55.66
33697;BME280;20031;43.416;23.232;2023-02-12T09:58:28;101418.84;;;6.99;55.29
33697;BME280;20031;43.416;23.232;2023-02-12T10:00:57;101429.84;;;7.03;55.96
33697;BME280;20031;43.416;23.232;2023-02-12T10:03:30;101428.59;;;7.08;55.42
33697;BME280;20031;43.416;23.232;2023-02-12T10:06:04;101436.34;;;7.08;56.17
33697;BME280;20031;43.416;23.232;2023-02-12T10:14:34;101438.09;;;6.95;56.04
33697;BME280;20031;43.416;23.232;2023-02-12T10:25:25;101448.47;;;7.08;55.86
33697;BME280;20031;43.416;23.232;2023-02-12T10:27:57;101451.78;;;7.09;55.90
33697;BME280;20031;43.416;23.232;2023-02-12T10:30:44;101448.06;;;7.13;55.27
33697;BME280;20031;43.416;23.232;2023-02-12T10:33:41;101459.16;;;7.15;55.25
33697;BME280;20031;43.416;23.232;2023-02-12T10:36:36;101459.66;;;7.08;55.30
33697;BME280;20031;43.416;23.232;2023-02-12T10:39:16;101456.97;;;7.09;55.86
33697;BME280;20031;43.416;23.232;2023-02-12T10:44:32;101453.47;;;7.23;55.81
33697;BME280;20031;43.416;23.232;2023-02-12T10:46:57;101460.19;;;7.38;55.71
33697;BME280;20031;43.416;23.232;2023-02-12T10:49:23;101459.16;;;7.53;55.38
33697;BME280;20031;43.416;23.232;2023-02-12T10:52:10;101462.56;;;7.65;55.24
33697;BME280;20031;43.416;23.232;2023-02-12T10:54:40;101466.78;;;7.79;54.80
33697;BME280;20031;43.416;23.232;2023-02-12T10:57:21;101456.75;;;8.10;54.18
33697;BME280;20031;43.416;23.232;2023-02-12T10:59:50;101457.38;;;8.26;53.51
33697;BME280;20031;43.416;23.232;2023-02-12T11:02:26;101452.00;;;8.63;53.30
33697;BME280;20031;43.416;23.232;2023-02-12T11:04:53;101448.88;;;8.92;51.99
33697;BME280;20031;43.416;23.232;2023-02-12T11:07:20;101454.63;;;9.19;51.24
33697;BME280;20031;43.416;23.232;2023-02-12T11:09:48;101455.34;;;9.32;50.19
33697;BME280;20031;43.416;23.232;2023-02-12T11:14:57;101452.53;;;9.89;49.78
33697;BME280;20031;43.416;23.232;2023-02-12T11:17:26;101455.38;;;10.08;48.67
33697;BME280;20031;43.416;23.232;2023-02-12T11:25:24;101460.09;;;9.49;48.92
33697;BME280;20031;43.416;23.232;2023-02-12T11:28:33;101465.75;;;9.32;49.13
33697;BME280;20031;43.416;23.232;2023-02-12T11:31:00;101466.91;;;9.17;48.93
33697;BME280;20031;43.416;23.232;2023-02-12T11:36:22;101473.16;;;9.14;49.85
33697;BME280;20031;43.416;23.232;2023-02-12T11:38:54;101471.41;;;9.26;49.59
33697;BME280;20031;43.416;23.232;2023-02-12T11:43:55;101479.59;;;9.32;49.54
33697;BME280;20031;43.416;23.232;2023-02-12T11:46:23;101482.91;;;9.23;49.34
33697;BME280;20031;43.416;23.232;2023-02-12T11:48:51;101482.69;;;9.03;49.43
33697;BME280;20031;43.416;23.232;2023-02-12T11:51:21;101477.69;;;8.89;49.94
33697;BME280;20031;43.416;23.232;2023-02-12T11:53:52;101473.88;;;8.71;50.09
33697;BME280;20031;43.416;23.232;2023-02-12T11:56:18;101483.50;;;8.59;50.24
33697;BME280;20031;43.416;23.232;2023-02-12T11:58:46;101472.03;;;8.38;50.52
33697;BME280;20031;43.416;23.232;2023-02-12T12:01:28;101473.34;;;8.20;51.29
33697;BME280;20031;43.416;23.232;2023-02-12T12:06:38;101476.66;;;7.86;52.61
33697;BME280;20031;43.416;23.232;2023-02-12T12:14:25;101470.50;;;7.87;53.28
33697;BME280;20031;43.416;23.232;2023-02-12T12:17:03;101464.16;;;7.91;53.05
33697;BME280;20031;43.416;23.232;2023-02-12T12:19:57;101465.50;;;7.97;52.90
33697;BME280;20031;43.416;23.232;2023-02-12T12:25:26;101469.13;;;7.94;53.23
33697;BME280;20031;43.416;23.232;2023-02-12T12:30:56;101468.22;;;7.95;53.73
33697;BME280;20031;43.416;23.232;2023-02-12T12:33:43;101472.38;;;7.98;53.73
33697;BME280;20031;43.416;23.232;2023-02-12T12:42:13;101480.59;;;7.92;53.67
33697;BME280;20031;43.416;23.232;2023-02-12T12:47:52;101486.28;;;7.84;53.55
33697;BME280;20031;43.416;23.232;2023-02-12T12:53:35;101486.38;;;7.83;53.79
33697;BME280;20031;43.416;23.232;2023-02-12T12:56:13;101499.06;;;7.75;53.95
33697;BME280;20031;43.416;23.232;2023-02-12T12:58:49;101491.69;;;7.69;54.08
33697;BME280;20031;43.416;23.232;2023-02-12T13:01:52;101488.91;;;7.60;54.08
33697;BME280;20031;43.416;23.232;2023-02-12T13:10:05;101505.28;;;7.60;54.88
33697;BME280;20031;43.416;23.232;2023-02-12T13:13:16;101511.41;;;7.59;54.60
33697;BME280;20031;43.416;23.232;2023-02-12T13:15:47;101516.50;;;7.61;55.04
33697;BME280;20031;43.416;23.232;2023-02-12T13:18:48;101528.00;;;7.57;55.02
33697;BME280;20031;43.416;23.232;2023-02-12T13:21:43;101524.66;;;7.55;55.02
33697;BME280;20031;43.416;23.232;2023-02-12T13:24:28;101523.16;;;7.52;54.97
33697;BME280;20031;43.416;23.232;2023-02-12T13:27:13;101529.34;;;7.50;55.09
33697;BME280;20031;43.416;23.232;2023-02-12T13:29:45;101521.91;;;7.45;54.90
33697;BME280;20031;43.416;23.232;2023-02-12T13:32:21;101520.53;;;7.40;55.44
33697;BME280;20031;43.416;23.232;2023-02-12T13:34:47;101519.19;;;7.34;55.49
33697;BME280;20031;43.416;23.232;2023-02-12T13:37:19;101521.97;;;7.31;55.79
33697;BME280;20031;43.416;23.232;2023-02-12T13:39:48;101528.28;;;7.27;55.87
33697;BME280;20031;43.416;23.232;2023-02-12T13:53:53;101545.91;;;7.22;56.29
33697;BME280;20031;43.416;23.232;2023-02-12T13:56:44;101543.44;;;7.21;56.52
33697;BME280;20031;43.416;23.232;2023-02-12T14:01:55;101551.88;;;7.10;55.87
33697;BME280;20031;43.416;23.232;2023-02-12T14:04:38;101553.09;;;7.05;56.38
33697;BME280;20031;43.416;23.232;2023-02-12T14:07:11;101557.66;;;7.02;56.74
33697;BME280;20031;43.416;23.232;2023-02-12T14:12:34;101561.56;;;6.95;56.67
33697;BME280;20031;43.416;23.232;2023-02-12T14:15:29;101554.84;;;6.92;57.21
33697;BME280;20031;43.416;23.232;2023-02-12T14:20:36;101558.63;;;6.87;56.99
33697;BME280;20031;43.416;23.232;2023-02-12T14:23:23;101567.34;;;6.86;57.08
33697;BME280;20031;43.416;23.232;2023-02-12T14:26:01;101570.03;;;6.84;57.07
33697;BME280;20031;43.416;23.232;2023-02-12T14:33:42;101579.31;;;6.74;57.89
33697;BME280;20031;43.416;23.232;2023-02-12T14:36:19;101582.28;;;6.68;58.24
33697;BME280;20031;43.416;23.232;2023-02-12T14:41:46;101590.09;;;6.55;58.85
33697;BME280;20031;43.416;23.232;2023-02-12T14:47:00;101582.25;;;6.42;59.12
33697;BME280;20031;43.416;23.232;2023-02-12T14:49:44;101588.75;;;6.35;59.59
33697;BME280;20031;43.416;23.232;2023-02-12T14:57:09;101590.50;;;6.21;60.62
33697;BME280;20031;43.416;23.232;2023-02-12T14:59:40;101599.47;;;6.15;60.63
33697;BME280;20031;43.416;23.232;2023-02-12T15:02:17;101611.88;;;6.10;60.32
33697;BME280;20031;43.416;23.232;2023-02-12T15:04:45;101604.53;;;6.03;60.86
33697;BME280;20031;43.416;23.232;2023-02-12T15:07:22;101603.25;;;5.96;60.94
33697;BME280;20031;43.416;23.232;2023-02-12T15:09:57;101611.38;;;5.90;61.51
33697;BME280;20031;43.416;23.232;2023-02-12T15:12:34;101610.84;;;5.85;61.55
33697;BME280;20031;43.416;23.232;2023-02-12T15:15:26;101616.19;;;5.82;61.36
33697;BME280;20031;43.416;23.232;2023-02-12T15:18:07;101618.28;;;5.76;62.26
33697;BME280;20031;43.416;23.232;2023-02-12T15:20:59;101626.28;;;5.71;62.34
33697;BME280;20031;43.416;23.232;2023-02-12T15:23:43;101627.56;;;5.64;62.76
33697;BME280;20031;43.416;23.232;2023-02-12T15:26:17;101627.00;;;5.59;62.45
33697;BME280;20031;43.416;23.232;2023-02-12T15:28:48;101637.75;;;5.52;62.65
33697;BME280;20031;43.416;23.232;2023-02-12T15:31:18;101641.47;;;5.48;62.63
33697;BME280;20031;43.416;23.232;2023-02-12T15:33:47;101643.56;;;5.42;62.54
33697;BME280;20031;43.416;23.232;2023-02-12T15:36:22;101649.81;;;5.38;63.13